UAE915 RPVM-RPLC
Flight info
| Callsign | UAE915 |
|---|---|
| Flight time | 0h 58m |
| Altitude | 32000 |
| Route | MOLOC4P MOLOC W11 MIA W16 OLIVA OLIVA3P |
| Aircraft | B77W/H-SDE1E2E3FGHIJ2J3J4J5M1RWXY/LB1D1 |
Departure
| Time | 2026-04-26 13:39 |
|---|---|
| Airport | Mactan Cebu International Airport (RPVM) |
Arrival
| Time | 2026-04-26 14:37 |
|---|---|
| Airport | Clark International Airport / Clark Air Base (RPLC) |
| Time | Latitude | Longitude | Altitude | Speed | Heading |
|---|---|---|---|---|---|
| 2026-04-26 12:55 | 10.31407 | 123.97843 | 43 ft | 0 kts | 314° |
| 2026-04-26 12:59 | 10.31407 | 123.97844 | 43 ft | 0 kts | 314° |
| 2026-04-26 13:19 | 10.31406 | 123.97844 | 43 ft | 0 kts | 314° |
| 2026-04-26 13:25 | 10.31404 | 123.97847 | 42 ft | 3 kts | 314° |
| 2026-04-26 13:25 | 10.31389 | 123.97865 | 41 ft | 3 kts | 307° |
| 2026-04-26 13:26 | 10.31379 | 123.97882 | 40 ft | 2 kts | 290° |
| 2026-04-26 13:26 | 10.31375 | 123.97896 | 39 ft | 2 kts | 268° |
| 2026-04-26 13:26 | 10.31376 | 123.97908 | 39 ft | 2 kts | 245° |
| 2026-04-26 13:26 | 10.31385 | 123.97922 | 39 ft | 3 kts | 227° |
| 2026-04-26 13:27 | 10.31403 | 123.97940 | 40 ft | 4 kts | 223° |
| 2026-04-26 13:27 | 10.31419 | 123.97955 | 43 ft | 0 kts | 223° |
| 2026-04-26 13:27 | 10.31427 | 123.97962 | 41 ft | 0 kts | 223° |
| 2026-04-26 13:31 | 10.31424 | 123.97959 | 42 ft | 5 kts | 223° |
| 2026-04-26 13:32 | 10.31340 | 123.97906 | 43 ft | 13 kts | 178° |
| 2026-04-26 13:32 | 10.31265 | 123.97955 | 44 ft | 13 kts | 136° |
| 2026-04-26 13:32 | 10.31181 | 123.97959 | 44 ft | 14 kts | 211° |
| 2026-04-26 13:32 | 10.31110 | 123.97893 | 43 ft | 14 kts | 224° |
| 2026-04-26 13:33 | 10.31041 | 123.97823 | 43 ft | 14 kts | 225° |
| 2026-04-26 13:33 | 10.30971 | 123.97754 | 43 ft | 14 kts | 224° |
| 2026-04-26 13:33 | 10.30895 | 123.97678 | 43 ft | 19 kts | 224° |
| 2026-04-26 13:33 | 10.30775 | 123.97558 | 43 ft | 12 kts | 224° |
| 2026-04-26 13:34 | 10.30728 | 123.97512 | 44 ft | 14 kts | 224° |
| 2026-04-26 13:34 | 10.30656 | 123.97441 | 44 ft | 14 kts | 225° |
| 2026-04-26 13:34 | 10.30585 | 123.97369 | 44 ft | 15 kts | 224° |
| 2026-04-26 13:34 | 10.30537 | 123.97321 | 44 ft | 15 kts | 225° |
| 2026-04-26 13:35 | 10.30432 | 123.97214 | 44 ft | 19 kts | 225° |
| 2026-04-26 13:35 | 10.30327 | 123.97108 | 43 ft | 24 kts | 225° |
| 2026-04-26 13:35 | 10.30197 | 123.96976 | 43 ft | 28 kts | 224° |
| 2026-04-26 13:35 | 10.30045 | 123.96826 | 43 ft | 31 kts | 225° |
| 2026-04-26 13:36 | 10.29933 | 123.96721 | 43 ft | 16 kts | 208° |
| 2026-04-26 13:36 | 10.29849 | 123.96742 | 43 ft | 14 kts | 141° |
| 2026-04-26 13:36 | 10.29789 | 123.96802 | 41 ft | 0 kts | 134° |
| 2026-04-26 13:38 | 10.29781 | 123.96810 | 41 ft | 6 kts | 133° |
| 2026-04-26 13:38 | 10.29734 | 123.96869 | 39 ft | 15 kts | 118° |
| 2026-04-26 13:38 | 10.29744 | 123.96923 | 38 ft | 4 kts | 52° |
| 2026-04-26 13:38 | 10.29744 | 123.96924 | 38 ft | 0 kts | 52° |
| 2026-04-26 13:39 | 10.29746 | 123.96926 | 38 ft | 5 kts | 52° |
| 2026-04-26 13:39 | 10.29995 | 123.97181 | 37 ft | 104 kts | 44° |
| 2026-04-26 13:39 | 10.30746 | 123.97931 | 126 ft | 186 kts | 45° |
| 2026-04-26 13:39 | 10.31626 | 123.98856 | 1304 ft | 182 kts | 46° |
| 2026-04-26 13:40 | 10.32532 | 123.99786 | 2267 ft | 194 kts | 46° |
| 2026-04-26 13:40 | 10.33563 | 124.00846 | 2585 ft | 229 kts | 46° |
| 2026-04-26 13:40 | 10.34990 | 124.01721 | 3014 ft | 255 kts | 12° |
| 2026-04-26 13:40 | 10.36779 | 124.01547 | 3918 ft | 264 kts | 345° |
| 2026-04-26 13:41 | 10.38555 | 124.00931 | 4802 ft | 274 kts | 343° |
| 2026-04-26 13:41 | 10.40366 | 124.00295 | 5868 ft | 275 kts | 343° |
| 2026-04-26 13:41 | 10.42191 | 123.99664 | 6828 ft | 280 kts | 344° |
| 2026-04-26 13:41 | 10.44064 | 123.99042 | 7718 ft | 285 kts | 344° |
| 2026-04-26 13:42 | 10.45960 | 123.98421 | 8702 ft | 288 kts | 345° |
| 2026-04-26 13:42 | 10.47860 | 123.97816 | 9649 ft | 292 kts | 345° |
| 2026-04-26 13:42 | 10.49816 | 123.97200 | 10511 ft | 297 kts | 345° |
| 2026-04-26 13:42 | 10.51859 | 123.96564 | 10952 ft | 321 kts | 345° |
| 2026-04-26 13:43 | 10.54098 | 123.95876 | 11169 ft | 351 kts | 345° |
| 2026-04-26 13:43 | 10.56531 | 123.95127 | 11498 ft | 375 kts | 345° |
| 2026-04-26 13:43 | 10.59060 | 123.94343 | 12269 ft | 385 kts | 345° |
| 2026-04-26 13:43 | 10.61646 | 123.93539 | 13160 ft | 391 kts | 345° |
| 2026-04-26 13:44 | 10.64220 | 123.92640 | 13960 ft | 394 kts | 336° |
| 2026-04-26 13:44 | 10.66482 | 123.90999 | 14592 ft | 407 kts | 315° |
| 2026-04-26 13:44 | 10.68312 | 123.88804 | 15301 ft | 410 kts | 311° |
| 2026-04-26 13:44 | 10.70155 | 123.86559 | 16051 ft | 416 kts | 311° |
| 2026-04-26 13:45 | 10.72035 | 123.84299 | 16879 ft | 420 kts | 311° |
| 2026-04-26 13:45 | 10.73937 | 123.82034 | 17721 ft | 424 kts | 311° |
| 2026-04-26 13:45 | 10.75868 | 123.79748 | 18439 ft | 428 kts | 311° |
| 2026-04-26 13:45 | 10.77824 | 123.77438 | 19091 ft | 433 kts | 311° |
| 2026-04-26 13:46 | 10.79800 | 123.75105 | 19761 ft | 437 kts | 311° |
| 2026-04-26 13:46 | 10.81793 | 123.72752 | 20423 ft | 441 kts | 311° |
| 2026-04-26 13:46 | 10.83806 | 123.70374 | 21076 ft | 446 kts | 311° |
| 2026-04-26 13:46 | 10.85839 | 123.67972 | 21715 ft | 450 kts | 311° |
| 2026-04-26 13:47 | 10.87889 | 123.65547 | 22357 ft | 454 kts | 311° |
| 2026-04-26 13:47 | 10.89955 | 123.63103 | 23003 ft | 457 kts | 311° |
| 2026-04-26 13:47 | 10.92038 | 123.60639 | 23584 ft | 461 kts | 310° |
| 2026-04-26 13:47 | 10.94137 | 123.58155 | 24093 ft | 465 kts | 310° |
| 2026-04-26 13:48 | 10.96252 | 123.55650 | 24618 ft | 467 kts | 310° |
| 2026-04-26 13:48 | 10.98371 | 123.53142 | 25229 ft | 467 kts | 310° |
| 2026-04-26 13:48 | 11.00535 | 123.50658 | 25702 ft | 472 kts | 314° |
| 2026-04-26 13:48 | 11.03080 | 123.48518 | 26092 ft | 477 kts | 324° |
| 2026-04-26 13:49 | 11.05831 | 123.46606 | 26551 ft | 481 kts | 326° |
| 2026-04-26 13:49 | 11.08651 | 123.44745 | 27005 ft | 484 kts | 326° |
| 2026-04-26 13:49 | 11.11488 | 123.42883 | 27477 ft | 487 kts | 326° |
| 2026-04-26 13:49 | 11.14326 | 123.40991 | 27950 ft | 489 kts | 325° |
| 2026-04-26 13:50 | 11.17164 | 123.39063 | 28457 ft | 491 kts | 325° |
| 2026-04-26 13:50 | 11.19989 | 123.37114 | 29007 ft | 491 kts | 324° |
| 2026-04-26 13:50 | 11.22812 | 123.35147 | 29566 ft | 491 kts | 324° |
| 2026-04-26 13:50 | 11.25620 | 123.33180 | 30183 ft | 489 kts | 324° |
| 2026-04-26 13:51 | 11.28421 | 123.31216 | 30741 ft | 488 kts | 324° |
| 2026-04-26 13:51 | 11.31221 | 123.29252 | 31231 ft | 489 kts | 324° |
| 2026-04-26 13:51 | 11.34022 | 123.27288 | 31730 ft | 489 kts | 324° |
| 2026-04-26 13:51 | 11.36827 | 123.25322 | 31941 ft | 490 kts | 324° |
| 2026-04-26 13:52 | 11.39635 | 123.23354 | 31927 ft | 490 kts | 324° |
| 2026-04-26 13:52 | 11.45251 | 123.19422 | 31925 ft | 489 kts | 324° |
| 2026-04-26 13:53 | 11.50860 | 123.15491 | 31926 ft | 490 kts | 324° |
| 2026-04-26 13:53 | 11.56479 | 123.11552 | 31929 ft | 490 kts | 323° |
| 2026-04-26 13:54 | 11.62099 | 123.07609 | 31929 ft | 490 kts | 323° |
| 2026-04-26 13:54 | 11.67723 | 123.03662 | 31932 ft | 491 kts | 323° |
| 2026-04-26 13:55 | 11.75206 | 122.98407 | 31930 ft | 490 kts | 323° |
| 2026-04-26 13:56 | 11.84543 | 122.91845 | 31909 ft | 490 kts | 323° |
| 2026-04-26 13:56 | 11.90159 | 122.87896 | 31919 ft | 490 kts | 323° |
| 2026-04-26 13:57 | 11.95768 | 122.83949 | 31926 ft | 490 kts | 323° |
| 2026-04-26 13:57 | 12.01376 | 122.80001 | 31929 ft | 489 kts | 323° |
| 2026-04-26 13:58 | 12.06980 | 122.76053 | 31932 ft | 489 kts | 323° |
| 2026-04-26 13:58 | 12.12585 | 122.72103 | 31932 ft | 489 kts | 323° |
| 2026-04-26 13:59 | 12.18191 | 122.68150 | 31923 ft | 490 kts | 323° |
| 2026-04-26 13:59 | 12.23796 | 122.64196 | 31924 ft | 490 kts | 323° |
| 2026-04-26 14:00 | 12.34065 | 122.56944 | 31939 ft | 490 kts | 323° |
| 2026-04-26 14:01 | 12.39682 | 122.52977 | 31930 ft | 491 kts | 323° |
| 2026-04-26 14:01 | 12.46243 | 122.48341 | 31922 ft | 490 kts | 323° |
| 2026-04-26 14:02 | 12.50906 | 122.45043 | 31938 ft | 490 kts | 323° |
| 2026-04-26 14:02 | 12.56512 | 122.41077 | 31927 ft | 490 kts | 323° |
| 2026-04-26 14:03 | 12.62114 | 122.37110 | 31931 ft | 490 kts | 323° |
| 2026-04-26 14:03 | 12.67712 | 122.33143 | 31921 ft | 489 kts | 323° |
| 2026-04-26 14:04 | 12.73313 | 122.29173 | 31931 ft | 489 kts | 323° |
| 2026-04-26 14:04 | 12.78909 | 122.25204 | 31941 ft | 489 kts | 323° |
| 2026-04-26 14:05 | 12.84505 | 122.21234 | 31924 ft | 489 kts | 323° |
| 2026-04-26 14:05 | 12.90098 | 122.17263 | 31934 ft | 489 kts | 323° |
| 2026-04-26 14:06 | 12.95692 | 122.13288 | 31936 ft | 489 kts | 323° |
| 2026-04-26 14:06 | 13.01283 | 122.09314 | 31935 ft | 489 kts | 323° |
| 2026-04-26 14:07 | 13.06872 | 122.05340 | 31930 ft | 489 kts | 323° |
| 2026-04-26 14:07 | 13.12459 | 122.01364 | 31930 ft | 489 kts | 323° |
| 2026-04-26 14:08 | 13.18042 | 121.97389 | 31931 ft | 488 kts | 323° |
| 2026-04-26 14:08 | 13.23582 | 121.93442 | 31935 ft | 488 kts | 323° |
| 2026-04-26 14:09 | 13.29158 | 121.89468 | 31941 ft | 488 kts | 322° |
| 2026-04-26 14:09 | 13.34727 | 121.85495 | 31940 ft | 488 kts | 322° |
| 2026-04-26 14:10 | 13.40297 | 121.81521 | 31934 ft | 487 kts | 322° |
| 2026-04-26 14:10 | 13.45861 | 121.77548 | 31934 ft | 487 kts | 322° |
| 2026-04-26 14:11 | 13.54197 | 121.71590 | 31938 ft | 486 kts | 322° |
| 2026-04-26 14:11 | 13.59751 | 121.67619 | 31934 ft | 486 kts | 322° |
| 2026-04-26 14:12 | 13.65303 | 121.63645 | 31933 ft | 486 kts | 322° |
| 2026-04-26 14:12 | 13.70856 | 121.59670 | 31944 ft | 486 kts | 322° |
| 2026-04-26 14:13 | 13.79190 | 121.53702 | 31941 ft | 486 kts | 322° |
| 2026-04-26 14:14 | 13.84727 | 121.49733 | 31935 ft | 479 kts | 322° |
| 2026-04-26 14:14 | 13.87417 | 121.47807 | 31932 ft | 464 kts | 322° |
| 2026-04-26 14:14 | 13.90040 | 121.45927 | 31632 ft | 457 kts | 322° |
| 2026-04-26 14:14 | 13.92661 | 121.44045 | 30899 ft | 453 kts | 322° |
| 2026-04-26 14:15 | 13.95180 | 121.42237 | 30375 ft | 431 kts | 322° |
| 2026-04-26 14:15 | 13.97549 | 121.40538 | 29924 ft | 410 kts | 322° |
| 2026-04-26 14:15 | 13.99882 | 121.38861 | 29461 ft | 402 kts | 322° |
| 2026-04-26 14:15 | 14.02177 | 121.37207 | 29015 ft | 405 kts | 322° |
| 2026-04-26 14:16 | 14.04511 | 121.35526 | 28587 ft | 415 kts | 323° |
| 2026-04-26 14:16 | 14.06909 | 121.33800 | 28137 ft | 424 kts | 323° |
| 2026-04-26 14:16 | 14.09331 | 121.32060 | 27662 ft | 424 kts | 323° |
| 2026-04-26 14:16 | 14.11738 | 121.30331 | 27191 ft | 420 kts | 323° |
| 2026-04-26 14:17 | 14.14127 | 121.28614 | 26741 ft | 417 kts | 323° |
| 2026-04-26 14:17 | 14.16493 | 121.26912 | 26298 ft | 413 kts | 323° |
| 2026-04-26 14:17 | 14.18838 | 121.25224 | 25852 ft | 409 kts | 323° |
| 2026-04-26 14:17 | 14.21163 | 121.23549 | 25402 ft | 406 kts | 323° |
| 2026-04-26 14:18 | 14.23473 | 121.21887 | 24958 ft | 404 kts | 323° |
| 2026-04-26 14:18 | 14.25736 | 121.20257 | 24524 ft | 401 kts | 323° |
| 2026-04-26 14:18 | 14.28013 | 121.18616 | 24091 ft | 398 kts | 323° |
| 2026-04-26 14:18 | 14.30277 | 121.16985 | 23657 ft | 396 kts | 323° |
| 2026-04-26 14:19 | 14.32528 | 121.15362 | 23169 ft | 394 kts | 323° |
| 2026-04-26 14:19 | 14.34765 | 121.13749 | 22725 ft | 390 kts | 323° |
| 2026-04-26 14:19 | 14.36978 | 121.12154 | 22260 ft | 387 kts | 323° |
| 2026-04-26 14:19 | 14.39174 | 121.10569 | 21848 ft | 383 kts | 323° |
| 2026-04-26 14:20 | 14.41346 | 121.09001 | 21433 ft | 380 kts | 323° |
| 2026-04-26 14:20 | 14.43503 | 121.07443 | 21019 ft | 377 kts | 323° |
| 2026-04-26 14:20 | 14.45643 | 121.05898 | 20604 ft | 374 kts | 323° |
| 2026-04-26 14:20 | 14.47766 | 121.04364 | 20192 ft | 372 kts | 323° |
| 2026-04-26 14:21 | 14.49877 | 121.02840 | 19789 ft | 369 kts | 323° |
| 2026-04-26 14:21 | 14.51987 | 121.01334 | 19379 ft | 368 kts | 324° |
| 2026-04-26 14:21 | 14.54114 | 120.99881 | 18964 ft | 367 kts | 325° |
| 2026-04-26 14:21 | 14.56249 | 120.98447 | 18548 ft | 366 kts | 326° |
| 2026-04-26 14:22 | 14.58381 | 120.97018 | 18121 ft | 365 kts | 326° |
| 2026-04-26 14:22 | 14.60502 | 120.95593 | 17668 ft | 363 kts | 326° |
| 2026-04-26 14:22 | 14.62610 | 120.94172 | 17245 ft | 361 kts | 326° |
| 2026-04-26 14:22 | 14.64703 | 120.92758 | 16832 ft | 358 kts | 326° |
| 2026-04-26 14:23 | 14.66779 | 120.91353 | 16425 ft | 356 kts | 326° |
| 2026-04-26 14:23 | 14.68842 | 120.89956 | 16022 ft | 353 kts | 326° |
| 2026-04-26 14:23 | 14.70892 | 120.88566 | 15625 ft | 351 kts | 326° |
| 2026-04-26 14:23 | 14.72927 | 120.87186 | 15225 ft | 349 kts | 326° |
| 2026-04-26 14:24 | 14.74955 | 120.85810 | 14828 ft | 348 kts | 326° |
| 2026-04-26 14:24 | 14.76971 | 120.84441 | 14435 ft | 346 kts | 326° |
| 2026-04-26 14:24 | 14.78976 | 120.83080 | 14038 ft | 345 kts | 326° |
| 2026-04-26 14:24 | 14.80979 | 120.81720 | 13612 ft | 344 kts | 327° |
| 2026-04-26 14:25 | 14.82974 | 120.80366 | 13184 ft | 342 kts | 327° |
| 2026-04-26 14:25 | 14.84956 | 120.79020 | 12785 ft | 340 kts | 327° |
| 2026-04-26 14:25 | 14.86927 | 120.77680 | 12400 ft | 338 kts | 327° |
| 2026-04-26 14:25 | 14.88887 | 120.76348 | 12005 ft | 336 kts | 327° |
| 2026-04-26 14:26 | 14.90831 | 120.75028 | 11627 ft | 334 kts | 327° |
| 2026-04-26 14:26 | 14.92767 | 120.73712 | 11249 ft | 332 kts | 327° |
| 2026-04-26 14:26 | 14.94714 | 120.72466 | 10865 ft | 326 kts | 335° |
| 2026-04-26 14:26 | 14.96867 | 120.71872 | 10515 ft | 317 kts | 354° |
| 2026-04-26 14:27 | 14.99013 | 120.71637 | 10488 ft | 304 kts | 355° |
| 2026-04-26 14:27 | 15.01076 | 120.71389 | 10380 ft | 294 kts | 354° |
| 2026-04-26 14:27 | 15.03078 | 120.71130 | 10266 ft | 285 kts | 354° |
| 2026-04-26 14:27 | 15.05015 | 120.70873 | 10153 ft | 276 kts | 354° |
| 2026-04-26 14:28 | 15.06910 | 120.70619 | 9904 ft | 274 kts | 354° |
| 2026-04-26 14:28 | 15.08799 | 120.70365 | 9596 ft | 273 kts | 354° |
| 2026-04-26 14:28 | 15.10684 | 120.70111 | 9273 ft | 273 kts | 353° |
| 2026-04-26 14:28 | 15.12563 | 120.69858 | 8963 ft | 272 kts | 353° |
| 2026-04-26 14:29 | 15.14440 | 120.69613 | 8653 ft | 271 kts | 355° |
| 2026-04-26 14:29 | 15.16321 | 120.69449 | 8338 ft | 271 kts | 356° |
| 2026-04-26 14:29 | 15.18197 | 120.69305 | 8023 ft | 270 kts | 356° |
| 2026-04-26 14:29 | 15.20046 | 120.69157 | 7718 ft | 270 kts | 356° |
| 2026-04-26 14:30 | 15.21919 | 120.69004 | 7402 ft | 270 kts | 356° |
| 2026-04-26 14:30 | 15.23779 | 120.68916 | 7078 ft | 264 kts | 7° |
| 2026-04-26 14:30 | 15.25500 | 120.69454 | 6776 ft | 257 kts | 24° |
| 2026-04-26 14:30 | 15.27169 | 120.70159 | 6496 ft | 262 kts | 22° |
| 2026-04-26 14:31 | 15.28891 | 120.70853 | 6159 ft | 268 kts | 22° |
| 2026-04-26 14:31 | 15.30634 | 120.71548 | 5823 ft | 269 kts | 22° |
| 2026-04-26 14:31 | 15.32391 | 120.72139 | 5555 ft | 261 kts | 8° |
| 2026-04-26 14:31 | 15.34151 | 120.71931 | 5430 ft | 254 kts | 339° |
| 2026-04-26 14:32 | 15.35611 | 120.70922 | 5120 ft | 254 kts | 315° |
| 2026-04-26 14:32 | 15.36591 | 120.69418 | 4805 ft | 251 kts | 293° |
| 2026-04-26 14:32 | 15.37216 | 120.67758 | 4531 ft | 244 kts | 292° |
| 2026-04-26 14:32 | 15.37615 | 120.66143 | 4238 ft | 221 kts | 270° |
| 2026-04-26 14:33 | 15.37235 | 120.64701 | 4176 ft | 202 kts | 241° |
| 2026-04-26 14:33 | 15.36413 | 120.63572 | 3888 ft | 190 kts | 224° |
| 2026-04-26 14:33 | 15.35380 | 120.62878 | 3663 ft | 167 kts | 202° |
| 2026-04-26 14:33 | 15.34321 | 120.62450 | 3444 ft | 161 kts | 200° |
| 2026-04-26 14:34 | 15.33262 | 120.62036 | 3253 ft | 164 kts | 200° |
| 2026-04-26 14:34 | 15.32191 | 120.61617 | 3030 ft | 165 kts | 200° |
| 2026-04-26 14:34 | 15.31125 | 120.61198 | 2813 ft | 163 kts | 199° |
| 2026-04-26 14:34 | 15.30066 | 120.60783 | 2585 ft | 162 kts | 200° |
| 2026-04-26 14:35 | 15.29016 | 120.60370 | 2359 ft | 163 kts | 199° |
| 2026-04-26 14:35 | 15.27962 | 120.59954 | 2055 ft | 160 kts | 200° |
| 2026-04-26 14:35 | 15.26933 | 120.59548 | 1842 ft | 158 kts | 199° |
| 2026-04-26 14:35 | 15.25900 | 120.59139 | 1622 ft | 159 kts | 200° |
| 2026-04-26 14:36 | 15.24870 | 120.58731 | 1411 ft | 158 kts | 200° |
| 2026-04-26 14:36 | 15.23849 | 120.58327 | 1208 ft | 158 kts | 201° |
| 2026-04-26 14:36 | 15.22817 | 120.57919 | 1005 ft | 159 kts | 201° |
| 2026-04-26 14:36 | 15.21791 | 120.57513 | 813 ft | 155 kts | 200° |
| 2026-04-26 14:37 | 15.20771 | 120.57112 | 651 ft | 160 kts | 202° |
| 2026-04-26 14:37 | 15.19736 | 120.56697 | 465 ft | 157 kts | 201° |
| 2026-04-26 14:37 | 15.18778 | 120.56315 | 435 ft | 134 kts | 201° |
| 2026-04-26 14:37 | 15.18213 | 120.56094 | 435 ft | 21 kts | 200° |
| 2026-04-26 14:38 | 15.18148 | 120.56012 | 434 ft | 13 kts | 274° |
| 2026-04-26 14:38 | 15.18169 | 120.55940 | 433 ft | 11 kts | 288° |
| 2026-04-26 14:38 | 15.18177 | 120.55918 | 432 ft | 0 kts | 292° |
| 2026-04-26 14:39 | 15.18177 | 120.55917 | 432 ft | 1 kts | 292° |